createdAt,value
2022-08-02T00:01:06.293Z,59.40
2022-08-02T00:03:35.559Z,59.90
2022-08-02T00:06:06.264Z,60.30
2022-08-02T00:08:35.055Z,60.50
2022-08-02T00:11:03.806Z,60.60
2022-08-02T00:13:32.686Z,60.70
2022-08-02T00:16:01.531Z,60.70
2022-08-02T00:18:30.344Z,60.50
2022-08-02T00:20:59.102Z,60.80
2022-08-02T00:23:29.242Z,61.10
2022-08-02T00:25:58.253Z,61.50
2022-08-02T00:28:28.375Z,62.10
2022-08-02T00:30:58.700Z,62.00
2022-08-02T00:34:26.164Z,62.20
2022-08-02T00:36:16.402Z,62.40
2022-08-02T00:38:46.655Z,62.30
2022-08-02T00:41:17.695Z,62.50
2022-08-02T00:43:47.175Z,62.60
2022-08-02T00:46:16.496Z,62.60
2022-08-02T00:48:45.641Z,62.50
2022-08-02T00:51:15.868Z,62.60
2022-08-02T00:53:46.051Z,62.70
2022-08-02T00:56:14.834Z,62.90
2022-08-02T00:58:43.681Z,63.20
2022-08-02T01:01:12.461Z,63.20
2022-08-02T01:03:41.321Z,63.10
2022-08-02T01:06:11.673Z,63.10
2022-08-02T01:08:40.808Z,63.30
2022-08-02T01:11:11.011Z,63.60
2022-08-02T01:13:39.777Z,63.80
2022-08-02T01:16:16.357Z,63.90
2022-08-02T01:18:49.200Z,64.30
2022-08-02T01:21:37.247Z,64.30
2022-08-02T01:24:43.383Z,64.00
2022-08-02T01:27:27.367Z,63.90
2022-08-02T01:30:01.725Z,64.10
2022-08-02T01:32:35.514Z,64.00
2022-08-02T01:35:09.044Z,64.20
2022-08-02T01:37:44.442Z,64.30
2022-08-02T01:40:18.027Z,64.20
2022-08-02T01:42:51.261Z,64.40
2022-08-02T01:45:23.364Z,64.60
2022-08-02T01:47:53.080Z,65.00
2022-08-02T01:50:28.762Z,65.20
2022-08-02T01:53:00.214Z,65.50
2022-08-02T01:55:35.093Z,65.40
2022-08-02T01:58:23.730Z,65.30
2022-08-02T02:00:57.876Z,65.30
2022-08-02T02:03:28.483Z,65.30
2022-08-02T02:05:59.126Z,65.20
2022-08-02T02:08:33.693Z,65.30
2022-08-02T02:12:11.895Z,65.20
2022-08-02T02:13:53.394Z,65.30
2022-08-02T02:16:24.139Z,65.30
2022-08-02T02:18:54.778Z,65.30
2022-08-02T02:21:23.677Z,65.50
2022-08-02T02:23:52.624Z,65.60
2022-08-02T02:26:29.373Z,66.20
2022-08-02T02:29:00.682Z,66.30
2022-08-02T02:31:34.037Z,66.10
2022-08-02T02:34:05.621Z,66.00
2022-08-02T02:36:35.614Z,66.40
2022-08-02T02:39:11.629Z,66.80
2022-08-02T02:41:43.824Z,66.80
2022-08-02T02:44:17.706Z,66.50
2022-08-02T02:46:50.942Z,66.50
2022-08-02T02:49:21.742Z,66.60
2022-08-02T02:51:51.456Z,66.60
2022-08-02T02:54:32.101Z,66.50
2022-08-02T02:57:05.818Z,66.70
2022-08-02T02:59:48.896Z,66.90
2022-08-02T03:02:20.379Z,66.90
2022-08-02T03:04:56.507Z,66.90
2022-08-02T03:07:27.785Z,66.90
2022-08-02T03:09:56.733Z,66.90
2022-08-02T03:12:31.811Z,67.30
2022-08-02T03:15:02.522Z,67.70
2022-08-02T03:17:43.495Z,67.60
2022-08-02T03:20:14.599Z,67.70
2022-08-02T03:22:43.624Z,68.00
2022-08-02T03:25:12.888Z,68.90
2022-08-02T03:27:42.681Z,69.20
2022-08-02T03:30:13.233Z,69.00
2022-08-02T03:32:46.395Z,70.70
2022-08-02T03:35:23.090Z,71.50
2022-08-02T03:37:54.924Z,72.10
2022-08-02T03:40:24.694Z,72.00
2022-08-02T03:42:53.863Z,71.80
2022-08-02T03:45:23.066Z,72.40
2022-08-02T03:47:53.853Z,72.80
2022-08-02T03:50:29.125Z,73.50
2022-08-02T03:52:58.538Z,74.20
2022-08-02T03:55:27.289Z,74.70
2022-08-02T03:57:56.297Z,74.20
2022-08-02T04:00:25.502Z,73.90
2022-08-02T04:02:55.816Z,75.20
2022-08-02T04:05:25.097Z,75.90
2022-08-02T04:08:02.435Z,75.60
2022-08-02T04:11:00.050Z,75.40
2022-08-02T04:13:35.736Z,75.90
2022-08-02T04:16:10.780Z,76.70
2022-08-02T04:18:47.624Z,78.00
2022-08-02T04:21:20.854Z,79.20
2022-08-02T04:23:51.907Z,80.00
2022-08-02T04:26:26.924Z,80.00
2022-08-02T04:28:58.798Z,80.70
2022-08-02T04:31:28.291Z,81.30
2022-08-02T04:33:58.949Z,82.60
2022-08-02T04:36:30.795Z,83.40
2022-08-02T04:39:00.643Z,85.00
2022-08-02T04:41:40.915Z,85.60
2022-08-02T04:44:13.002Z,85.70
2022-08-02T04:46:42.470Z,86.70
2022-08-02T04:49:12.808Z,88.80
2022-08-02T04:51:44.406Z,90.80
2022-08-02T04:54:13.469Z,92.40
2022-08-02T04:56:42.595Z,93.80
2022-08-02T04:59:12.639Z,94.70
2022-08-02T05:01:42.634Z,96.30
2022-08-02T05:04:12.877Z,97.70
2022-08-02T05:06:44.721Z,99.30
2022-08-02T05:09:13.829Z,99.90
2022-08-02T05:11:42.492Z,99.90
2022-08-02T05:14:11.223Z,99.90
2022-08-02T05:16:40.011Z,99.90
2022-08-02T05:19:08.674Z,99.90
2022-08-02T05:21:38.885Z,99.90
2022-08-02T05:24:08.765Z,99.90
2022-08-02T05:26:37.482Z,99.90
2022-08-02T05:29:06.283Z,99.90
2022-08-02T05:31:35.009Z,99.90
2022-08-02T05:34:05.753Z,97.40
2022-08-02T05:36:36.311Z,95.30
2022-08-02T05:39:12.505Z,94.70
2022-08-02T05:41:47.980Z,95.30
2022-08-02T05:44:16.713Z,92.30
2022-08-02T05:46:45.538Z,93.00
2022-08-02T05:49:16.648Z,93.20
2022-08-02T05:51:53.548Z,91.50
2022-08-02T05:54:28.991Z,90.10
2022-08-02T05:57:02.748Z,85.50
2022-08-02T05:59:38.871Z,78.50
2022-08-02T06:02:26.285Z,82.50
2022-08-02T06:05:05.503Z,80.30
2022-08-02T06:07:37.997Z,80.00
2022-08-02T06:10:09.779Z,82.40
2022-08-02T06:12:49.619Z,74.80
2022-08-02T06:15:20.920Z,75.90
2022-08-02T06:17:50.638Z,75.80
2022-08-02T06:20:21.625Z,78.00
2022-08-02T06:22:51.005Z,70.00
2022-08-02T06:25:50.997Z,65.70
2022-08-02T06:28:12.036Z,69.50
2022-08-02T06:30:41.854Z,73.60
2022-08-02T06:33:10.829Z,65.50
2022-08-02T06:35:46.866Z,64.80
2022-08-02T06:38:22.517Z,68.10
2022-08-02T06:40:59.885Z,67.80
2022-08-02T06:43:36.709Z,61.60
2022-08-02T06:46:34.053Z,58.50
2022-08-02T06:48:57.809Z,66.10
2022-08-02T06:51:26.720Z,65.70
2022-08-02T06:53:55.929Z,63.50
2022-08-02T06:56:26.177Z,63.20
2022-08-02T06:58:54.938Z,60.10
2022-08-02T07:01:23.937Z,58.80
2022-08-02T07:03:53.568Z,63.30
2022-08-02T07:06:22.953Z,65.50
2022-08-02T07:09:18.299Z,68.20
2022-08-02T07:11:41.957Z,66.30
2022-08-02T07:14:10.704Z,74.40
2022-08-02T07:16:39.764Z,69.90
2022-08-02T07:19:08.605Z,68.60
2022-08-02T07:21:56.365Z,76.60
2022-08-02T07:24:26.141Z,81.40
2022-08-02T07:27:10.684Z,76.60
2022-08-02T07:29:46.491Z,74.50
2022-08-02T07:32:16.592Z,83.00
2022-08-02T07:34:51.028Z,73.60
2022-08-02T07:37:35.797Z,71.40
2022-08-02T07:40:13.977Z,83.10
2022-08-02T07:42:45.912Z,76.90
2022-08-02T07:45:15.943Z,55.80
2022-08-02T07:47:46.062Z,74.10
2022-08-02T07:50:16.594Z,83.20
2022-08-02T07:52:46.290Z,75.80
2022-08-02T07:55:16.449Z,71.30
2022-08-02T07:57:47.421Z,77.10
2022-08-02T08:00:17.839Z,85.50
2022-08-02T08:02:47.514Z,77.20
2022-08-02T08:05:16.581Z,79.90
2022-08-02T08:07:45.324Z,78.20
2022-08-02T08:10:14.094Z,52.40
2022-08-02T08:12:42.841Z,73.70
2022-08-02T08:15:13.428Z,67.60
2022-08-02T08:17:42.164Z,59.20
2022-08-02T08:20:15.650Z,75.80
2022-08-02T08:22:44.702Z,89.80
2022-08-02T08:25:13.562Z,50.40
2022-08-02T08:27:49.706Z,63.00
2022-08-02T08:30:22.452Z,59.90
2022-08-02T08:32:51.523Z,62.30
2022-08-02T08:35:20.348Z,52.80
2022-08-02T08:37:49.570Z,55.50
2022-08-02T08:40:19.903Z,41.60
2022-08-02T08:42:48.872Z,55.70
2022-08-02T08:45:18.262Z,54.90
2022-08-02T08:47:54.051Z,55.50
2022-08-02T08:50:26.196Z,42.80
2022-08-02T08:52:59.379Z,54.40
2022-08-02T08:55:29.099Z,52.40
2022-08-02T08:58:01.171Z,52.60
2022-08-02T09:00:31.955Z,53.00
2022-08-02T09:03:04.984Z,52.30
2022-08-02T09:05:36.363Z,50.30
2022-08-02T09:08:06.572Z,49.30
2022-08-02T09:10:45.467Z,51.30
2022-08-02T09:13:37.956Z,50.90
2022-08-02T09:16:12.273Z,52.70
2022-08-02T09:18:46.378Z,52.70
2022-08-02T09:21:16.877Z,51.80
2022-08-02T09:23:47.442Z,53.70
2022-08-02T09:26:18.918Z,55.00
2022-08-02T09:28:50.226Z,55.20
2022-08-02T09:31:21.986Z,54.70
2022-08-02T09:33:55.683Z,56.00
2022-08-02T09:36:26.842Z,56.40
2022-08-02T09:38:58.166Z,57.30
2022-08-02T09:41:28.548Z,52.90
2022-08-02T09:44:04.302Z,54.80
2022-08-02T09:46:38.563Z,55.20
2022-08-02T09:49:11.667Z,53.30
2022-08-02T09:51:41.977Z,55.50
2022-08-02T09:54:12.261Z,54.00
2022-08-02T09:56:46.725Z,50.20
2022-08-02T09:59:16.621Z,52.20
2022-08-02T10:01:51.614Z,52.10
2022-08-02T10:04:34.051Z,50.90
2022-08-02T10:07:05.836Z,50.30
2022-08-02T10:09:35.930Z,51.30
2022-08-02T10:12:07.125Z,52.40
2022-08-02T10:14:36.358Z,50.20
2022-08-02T10:17:06.419Z,57.00
2022-08-02T10:20:02.373Z,54.50
2022-08-02T10:22:26.658Z,51.70
2022-08-02T10:24:56.392Z,57.10
2022-08-02T10:27:26.402Z,54.90
2022-08-02T10:29:59.142Z,54.50
2022-08-02T10:32:31.428Z,56.60
2022-08-02T10:35:18.917Z,55.60
2022-08-02T10:37:54.740Z,50.90
2022-08-02T10:40:27.571Z,56.10
2022-08-02T10:43:01.007Z,60.00
2022-08-02T10:45:30.697Z,60.00
2022-08-02T10:48:06.221Z,49.90
2022-08-02T10:50:57.327Z,53.90
2022-08-02T10:53:27.977Z,43.10
2022-08-02T10:55:58.857Z,57.20
2022-08-02T10:58:30.404Z,55.20
2022-08-02T11:01:00.340Z,55.90
2022-08-02T11:03:41.014Z,55.50
2022-08-02T11:06:24.972Z,51.30
2022-08-02T11:09:32.454Z,56.80
2022-08-02T11:12:04.590Z,50.20
2022-08-02T11:14:35.426Z,56.20
2022-08-02T11:17:11.999Z,62.10
2022-08-02T11:20:18.993Z,54.50
2022-08-02T11:22:50.756Z,40.10
2022-08-02T11:26:02.089Z,48.30
2022-08-02T11:28:25.780Z,39.20
2022-08-02T11:31:02.661Z,48.40
2022-08-02T11:33:37.127Z,42.90
2022-08-02T11:36:08.423Z,44.80
2022-08-02T11:38:38.613Z,50.80
2022-08-02T11:41:09.980Z,46.10
2022-08-02T11:43:40.251Z,49.50
2022-08-02T11:46:15.621Z,50.80
2022-08-02T11:48:45.418Z,50.00
2022-08-02T11:51:16.047Z,51.00
2022-08-02T11:53:51.471Z,38.70
2022-08-02T11:56:30.339Z,49.00
2022-08-02T11:59:06.558Z,50.70
2022-08-02T12:01:45.692Z,40.20
2022-08-02T12:04:22.854Z,48.10
2022-08-02T12:06:57.063Z,44.60
2022-08-02T12:09:28.867Z,42.00
2022-08-02T12:11:58.628Z,44.10
2022-08-02T12:14:29.296Z,46.00
2022-08-02T12:17:15.856Z,43.30
2022-08-02T12:19:45.286Z,44.00
2022-08-02T12:22:17.894Z,44.30
2022-08-02T12:24:49.925Z,44.10
2022-08-02T12:27:36.514Z,43.10
2022-08-02T12:30:08.864Z,33.90
2022-08-02T12:32:38.788Z,45.40
2022-08-02T12:35:10.891Z,43.80
2022-08-02T12:37:41.768Z,42.80
2022-08-02T12:40:25.473Z,41.70
2022-08-02T12:42:57.452Z,34.80
2022-08-02T12:45:26.993Z,43.90
2022-08-02T12:48:08.188Z,42.80
2022-08-02T12:50:38.109Z,44.70
2022-08-02T12:53:09.069Z,47.10
2022-08-02T12:56:02.358Z,47.90
2022-08-02T12:58:32.846Z,45.30
2022-08-02T13:01:02.867Z,44.70
2022-08-02T13:04:09.316Z,43.90
2022-08-02T13:09:17.925Z,47.50
2022-08-02T13:11:48.217Z,47.50
2022-08-02T13:14:17.322Z,48.70
2022-08-02T13:16:47.756Z,44.40
2022-08-02T13:19:16.855Z,47.20
2022-08-02T13:22:02.065Z,46.20
2022-08-02T13:24:39.875Z,45.60
2022-08-02T13:27:23.467Z,44.20
2022-08-02T13:29:53.625Z,41.80
2022-08-02T13:32:23.106Z,42.80
2022-08-02T13:34:52.162Z,45.60
2022-08-02T13:37:21.128Z,48.60
2022-08-02T13:40:11.718Z,44.10
2022-08-02T13:42:40.503Z,43.40
2022-08-02T13:45:12.495Z,46.60
2022-08-02T13:48:04.428Z,45.60
2022-08-02T13:50:31.690Z,45.80
2022-08-02T13:53:00.432Z,48.30
2022-08-02T13:55:29.381Z,48.60
2022-08-02T13:58:00.066Z,47.70
2022-08-02T14:00:34.642Z,47.10
2022-08-02T14:03:07.131Z,48.60
2022-08-02T14:05:48.493Z,47.60
2022-08-02T14:08:19.330Z,47.60
2022-08-02T14:10:48.715Z,50.20
2022-08-02T14:13:19.132Z,50.60
2022-08-02T14:15:48.218Z,49.80
2022-08-02T14:18:17.155Z,50.50
2022-08-02T14:20:46.404Z,54.70
2022-08-02T14:23:15.898Z,53.10
2022-08-02T14:25:44.687Z,51.10
2022-08-02T14:28:13.442Z,50.00
2022-08-02T14:30:43.718Z,50.70
2022-08-02T14:33:12.528Z,53.90
2022-08-02T14:35:41.452Z,54.40
2022-08-02T14:38:10.161Z,54.40
2022-08-02T14:40:39.033Z,52.70
2022-08-02T14:43:08.285Z,50.40
2022-08-02T14:45:40.904Z,52.60
2022-08-02T14:48:13.413Z,52.50
2022-08-02T14:50:42.110Z,52.00
2022-08-02T14:53:12.445Z,53.40
2022-08-02T14:55:43.286Z,53.10
2022-08-02T14:58:12.330Z,52.60
2022-08-02T15:00:43.826Z,51.70
2022-08-02T15:03:14.902Z,52.50
2022-08-02T15:05:43.581Z,57.10
2022-08-02T15:08:12.241Z,56.50
2022-08-02T15:10:46.883Z,55.70
2022-08-02T15:13:15.617Z,53.20
2022-08-02T15:15:44.392Z,53.60
2022-08-02T15:18:15.524Z,53.60
2022-08-02T15:20:57.480Z,52.80
2022-08-02T15:23:37.786Z,55.50
2022-08-02T15:26:08.219Z,54.50
2022-08-02T15:28:38.752Z,54.70
2022-08-02T15:31:07.466Z,51.30
2022-08-02T15:33:37.629Z,53.90
2022-08-02T15:36:07.033Z,52.90
2022-08-02T15:38:36.263Z,56.80
2022-08-02T15:41:05.725Z,56.60
2022-08-02T15:44:00.361Z,56.70
2022-08-02T15:46:32.247Z,56.40
2022-08-02T15:49:02.759Z,53.90
2022-08-02T15:51:31.536Z,57.40
2022-08-02T15:54:00.293Z,57.80
2022-08-02T15:56:29.074Z,56.90
2022-08-02T15:58:58.948Z,57.60
2022-08-02T16:01:37.063Z,59.30
2022-08-02T16:04:09.423Z,59.50
2022-08-02T16:06:38.420Z,57.70
2022-08-02T16:09:07.225Z,56.50
2022-08-02T16:11:35.957Z,59.50
2022-08-02T16:14:04.838Z,62.60
2022-08-02T16:16:35.575Z,56.80
2022-08-02T16:19:46.728Z,57.40
2022-08-02T16:21:56.539Z,59.30
2022-08-02T16:24:26.566Z,57.10
2022-08-02T16:26:55.340Z,56.60
2022-08-02T16:29:24.216Z,54.30
2022-08-02T16:31:53.061Z,56.10
2022-08-02T16:34:21.779Z,57.50
2022-08-02T16:36:50.466Z,57.60
2022-08-02T16:39:20.701Z,56.90
2022-08-02T16:44:38.225Z,56.80
2022-08-02T16:47:07.148Z,57.00
2022-08-02T16:50:05.675Z,58.00
2022-08-02T16:52:24.619Z,57.20
2022-08-02T16:54:54.854Z,57.00
2022-08-02T16:57:23.585Z,57.80
2022-08-02T17:00:12.692Z,56.70
2022-08-02T17:02:41.483Z,56.70
2022-08-02T17:05:14.150Z,55.90
2022-08-02T17:08:08.396Z,57.10
2022-08-02T17:10:34.912Z,57.20
2022-08-02T17:13:11.186Z,58.50
2022-08-02T17:16:07.747Z,58.00
2022-08-02T17:18:30.866Z,56.30
2022-08-02T17:21:01.636Z,57.80
2022-08-02T17:24:03.872Z,58.90
2022-08-02T17:26:20.861Z,55.90
2022-08-02T17:31:42.848Z,59.80
2022-08-02T17:34:13.685Z,59.90
2022-08-02T17:36:49.766Z,60.00
2022-08-02T17:39:18.808Z,60.10
2022-08-02T17:41:50.834Z,60.00
2022-08-02T17:44:37.697Z,59.60
2022-08-02T17:47:11.432Z,60.80
2022-08-02T17:49:44.225Z,60.50
2022-08-02T17:52:51.812Z,60.00
2022-08-02T17:55:06.741Z,59.80
2022-08-02T17:57:55.709Z,59.20
2022-08-02T18:00:26.954Z,59.70
2022-08-02T18:02:55.917Z,61.40
2022-08-02T18:05:40.415Z,60.50
2022-08-02T18:08:15.342Z,60.80
2022-08-02T18:10:47.301Z,61.80
2022-08-02T18:13:17.553Z,62.20
2022-08-02T18:15:46.341Z,61.70
2022-08-02T18:18:17.091Z,62.40
2022-08-02T18:20:48.101Z,62.50
2022-08-02T18:23:18.781Z,63.30
2022-08-02T18:25:53.153Z,64.30
2022-08-02T18:28:26.677Z,64.70
2022-08-02T18:30:55.850Z,65.30
2022-08-02T18:33:57.500Z,66.20
2022-08-02T18:36:24.986Z,66.10
2022-08-02T18:38:54.086Z,65.40
2022-08-02T18:41:23.003Z,65.40
2022-08-02T18:43:54.936Z,65.70
2022-08-02T18:46:24.163Z,68.60
2022-08-02T18:49:06.837Z,69.70
2022-08-02T18:51:44.848Z,71.30
2022-08-02T18:54:13.659Z,72.70
2022-08-02T18:56:47.466Z,73.60
2022-08-02T18:59:18.198Z,74.30
2022-08-02T19:01:50.339Z,73.20
2022-08-02T19:04:27.566Z,72.90
2022-08-02T19:07:07.928Z,73.80
2022-08-02T19:09:40.038Z,74.20
2022-08-02T19:12:11.756Z,73.30
2022-08-02T19:14:42.324Z,75.50
2022-08-02T19:20:00.084Z,74.10
2022-08-02T19:22:29.111Z,74.20
2022-08-02T19:27:47.979Z,76.50
2022-08-02T19:30:21.288Z,75.90
2022-08-02T19:32:59.237Z,76.80
2022-08-02T19:35:34.171Z,74.90
2022-08-02T19:40:59.884Z,76.00
2022-08-02T19:44:25.926Z,75.20
2022-08-02T19:46:20.873Z,75.20
2022-08-02T19:48:51.043Z,75.10
2022-08-02T19:51:49.288Z,74.80
2022-08-02T19:54:10.927Z,75.60
2022-08-02T19:56:41.402Z,76.10
2022-08-02T19:59:12.967Z,76.50
2022-08-02T20:01:48.789Z,77.40
2022-08-02T20:04:23.127Z,77.10
2022-08-02T20:06:52.943Z,77.10
2022-08-02T20:09:33.192Z,76.60
2022-08-02T20:12:12.871Z,76.70
2022-08-02T20:14:41.930Z,76.50
2022-08-02T20:17:21.828Z,75.50
2022-08-02T20:19:50.676Z,73.50
2022-08-02T20:22:21.264Z,73.90
2022-08-02T20:24:49.964Z,74.20
2022-08-02T20:27:23.917Z,75.30
2022-08-02T20:29:54.691Z,76.50
2022-08-02T20:32:25.603Z,77.30
2022-08-02T20:34:54.342Z,78.30
2022-08-02T20:37:59.619Z,79.10
2022-08-02T20:40:17.263Z,79.70
2022-08-02T20:42:48.524Z,79.90
2022-08-02T20:45:17.777Z,80.30
2022-08-02T20:47:51.061Z,80.60
2022-08-02T20:50:38.745Z,80.50
2022-08-02T20:53:08.966Z,81.70
2022-08-02T20:55:54.272Z,81.90
2022-08-02T20:58:26.452Z,82.30
2022-08-02T21:00:59.518Z,82.30
2022-08-02T21:03:38.961Z,81.80
2022-08-02T21:06:09.208Z,81.00
2022-08-02T21:08:38.182Z,81.40
2022-08-02T21:11:09.464Z,82.10
2022-08-02T21:13:46.799Z,81.90
2022-08-02T21:16:30.460Z,81.90
2022-08-02T21:19:00.923Z,81.70
2022-08-02T21:21:30.081Z,81.70
2022-08-02T21:23:59.935Z,81.50
2022-08-02T21:26:30.765Z,82.40
2022-08-02T21:29:03.776Z,81.50
2022-08-02T21:31:36.454Z,82.80
2022-08-02T21:34:21.512Z,83.80
2022-08-02T21:36:56.195Z,84.80
2022-08-02T21:39:25.235Z,85.70
2022-08-02T21:41:54.684Z,86.40
2022-08-02T21:44:23.922Z,85.70
2022-08-02T21:46:54.964Z,84.90
2022-08-02T21:49:27.090Z,85.00
2022-08-02T21:51:56.525Z,83.70
2022-08-02T21:54:25.376Z,84.10
2022-08-02T21:56:55.100Z,84.30
2022-08-02T21:59:26.716Z,84.00
2022-08-02T22:01:57.383Z,83.90
2022-08-02T22:04:28.363Z,83.00
2022-08-02T22:06:58.727Z,82.50
2022-08-02T22:09:43.727Z,82.70
2022-08-02T22:12:17.917Z,83.90
2022-08-02T22:14:55.024Z,84.00
2022-08-02T22:17:52.141Z,84.80
2022-08-02T22:20:20.011Z,84.30
2022-08-02T22:22:50.220Z,83.00
2022-08-02T22:25:26.465Z,83.80
2022-08-02T22:28:36.586Z,84.00
2022-08-02T22:30:56.846Z,84.40
2022-08-02T22:33:59.848Z,85.70
2022-08-02T22:36:32.796Z,86.70
2022-08-02T22:39:02.383Z,85.60
2022-08-02T22:41:41.773Z,86.20
2022-08-02T22:44:20.469Z,86.20
2022-08-02T22:46:50.137Z,85.70
2022-08-02T22:49:38.173Z,85.70
2022-08-02T22:54:58.512Z,85.80
2022-08-02T22:57:30.276Z,85.70
2022-08-02T22:58:41.943Z,57.80
2022-08-02T22:58:57.123Z,75.60
2022-08-02T22:58:58.899Z,75.30
2022-08-02T22:59:05.291Z,73.90
2022-08-02T23:00:00.952Z,86.40
2022-08-02T23:02:30.017Z,86.90
2022-08-02T23:04:59.287Z,87.20
2022-08-02T23:07:52.464Z,87.20
2022-08-02T23:10:21.243Z,86.80
2022-08-02T23:12:50.072Z,86.80
2022-08-02T23:15:18.845Z,86.70
2022-08-02T23:18:05.093Z,86.70
2022-08-02T23:20:34.114Z,86.80
2022-08-02T23:23:04.301Z,87.40
2022-08-02T23:25:40.709Z,87.90
2022-08-02T23:28:09.360Z,88.30
2022-08-02T23:30:38.725Z,88.70
2022-08-02T23:33:07.587Z,89.00
2022-08-02T23:35:36.302Z,88.90
2022-08-02T23:38:06.447Z,88.90
2022-08-02T23:40:40.642Z,89.10
2022-08-02T23:43:14.988Z,89.30
2022-08-02T23:45:46.470Z,89.50
2022-08-02T23:48:15.541Z,89.60
2022-08-02T23:50:44.200Z,89.50
2022-08-02T23:53:14.363Z,89.60
2022-08-02T23:55:43.109Z,89.50
2022-08-02T23:58:12.973Z,89.40
